Time;durP1;ratioP1;P1;durP2;ratioP2;P2;SDS_P1;SDS_P2;PMS_P1;PMS_P2;Temp;Humidity;BMP_temperature;BMP_pressure;BME280_temperature;BME280_humidity;BME280_pressure;Samples;Min_cycle;Max_cycle;Signal;HPM_P1;HPM_P2
2022/07/18 00:01:10;;;;;;;5.63;4.22;;;;;;;28.08;49.01;101561.78;5096670;28;20044;-74
2022/07/18 00:03:37;;;;;;;4.88;4.35;;;;;;;28.08;48.78;101553.63;5096196;28;20047;-75
2022/07/18 00:06:05;;;;;;;5.82;4.22;;;;;;;28.09;48.75;101556.16;5095242;28;20052;-75
2022/07/18 00:08:35;;;;;;;5.13;4.20;;;;;;;28.09;48.85;101561.63;5096907;28;20048;-75
2022/07/18 00:11:03;;;;;;;6.45;4.53;;;;;;;28.11;48.84;101564.16;5097357;28;20447;-75
2022/07/18 00:13:40;;;;;;;7.72;4.20;;;;;;;28.10;49.12;101557.00;5085779;28;20080;-75
2022/07/18 00:16:08;;;;;;;4.88;4.30;;;;;;;28.11;49.20;101561.44;5074247;28;20071;-75
2022/07/18 00:18:35;;;;;;;4.88;4.40;;;;;;;28.12;48.97;101563.16;5076414;28;20045;-75
2022/07/18 00:21:08;;;;;;;5.30;4.57;;;;;;;28.13;48.84;101561.28;5075931;28;20044;-75
2022/07/18 00:23:36;;;;;;;5.45;4.55;;;;;;;28.14;48.97;101562.97;5075776;28;20041;-75
2022/07/18 00:26:05;;;;;;;4.90;4.40;;;;;;;28.13;49.37;101555.84;5075999;28;20041;-75
2022/07/18 00:28:34;;;;;;;4.82;3.72;;;;;;;28.13;49.38;101561.28;5075677;28;20036;-75
2022/07/18 00:31:06;;;;;;;6.30;4.03;;;;;;;28.14;49.46;101552.94;5075418;28;20059;-76
2022/07/18 00:33:38;;;;;;;5.00;4.32;;;;;;;28.14;49.10;101552.06;5075961;28;20476;-75
2022/07/18 00:36:11;;;;;;;5.30;4.18;;;;;;;28.14;49.10;101558.38;5074434;28;20048;-75
2022/07/18 00:38:41;;;;;;;6.88;4.53;;;;;;;28.15;49.13;101548.31;5083593;28;20051;-75
2022/07/18 00:41:15;;;;;;;8.43;4.30;;;;;;;28.15;49.12;101551.03;5096507;28;20044;-75
2022/07/18 00:43:44;;;;;;;6.65;4.18;;;;;;;28.15;49.53;101553.78;5095031;28;20269;-75
2022/07/18 00:46:24;;;;;;;4.38;3.80;;;;;;;28.15;49.00;101553.78;5095937;28;20044;-75
2022/07/18 00:48:53;;;;;;;5.22;3.83;;;;;;;28.15;49.18;101548.31;5095523;28;20055;-75
2022/07/18 00:51:23;;;;;;;4.43;4.03;;;;;;;28.16;49.35;101544.59;5093933;28;20075;-75
2022/07/18 00:53:51;;;;;;;4.95;4.40;;;;;;;28.15;49.44;101546.44;5095756;28;20047;-75
2022/07/18 00:56:23;;;;;;;5.22;4.38;;;;;;;28.16;49.47;101541.88;5095450;28;20040;-74
2022/07/18 00:58:50;;;;;;;;;;;;;;;28.16;49.56;101550.06;5077541;28;20075;-74
2022/07/18 01:04:05;;;;;;;4.13;3.70;;;;;;;28.16;49.41;101550.91;5094511;28;20505;-77
2022/07/18 01:06:33;;;;;;;5.15;4.10;;;;;;;28.16;49.30;101550.91;5095634;28;20040;-76
2022/07/18 01:09:02;;;;;;;4.80;4.32;;;;;;;28.17;49.74;101552.59;5095706;28;20047;-77
2022/07/18 01:11:35;;;;;;;5.57;4.50;;;;;;;28.16;49.57;101550.06;5095821;28;20040;-75
2022/07/18 01:14:06;;;;;;;5.57;4.40;;;;;;;28.17;49.61;101554.47;5094710;28;20047;-75
2022/07/18 01:16:34;;;;;;;4.25;3.85;;;;;;;28.18;49.80;101559.72;5094023;28;20048;-74
2022/07/18 01:19:06;;;;;;;5.53;4.13;;;;;;;28.18;50.00;101557.00;5095429;28;20047;-74
2022/07/18 01:21:38;;;;;;;4.88;4.07;;;;;;;28.18;49.99;101556.16;5095085;28;20044;-74
2022/07/18 01:24:06;;;;;;;5.15;4.18;;;;;;;28.18;49.88;101557.00;5094953;28;20036;-74
2022/07/18 01:26:36;;;;;;;4.80;4.28;;;;;;;28.18;50.02;101557.00;5092560;28;20082;-74
2022/07/18 01:29:04;;;;;;;6.20;4.18;;;;;;;28.18;49.64;101556.16;5095205;28;20492;-74
2022/07/18 01:31:33;;;;;;;4.95;4.18;;;;;;;28.18;50.03;101559.72;5094740;28;20040;-74
2022/07/18 01:34:03;;;;;;;6.68;4.40;;;;;;;28.18;49.64;101554.28;5094601;28;20052;-74
2022/07/18 01:36:31;;;;;;;5.95;4.40;;;;;;;28.18;50.03;101554.28;5093674;28;20048;-74
2022/07/18 01:38:59;;;;;;;4.75;4.25;;;;;;;28.19;49.84;101549.69;5093163;28;20059;-74
2022/07/18 01:41:27;;;;;;;5.70;4.72;;;;;;;28.20;49.91;101556.84;5094882;28;20071;-75
2022/07/18 01:43:54;;;;;;;5.10;4.15;;;;;;;28.19;50.01;101550.53;5092232;28;20056;-74
2022/07/18 01:46:21;;;;;;;5.15;4.63;;;;;;;28.19;49.79;101549.69;5093082;28;20052;-75
2022/07/18 01:48:49;;;;;;;5.63;5.05;;;;;;;28.19;49.98;101549.69;5092802;28;20052;-75
2022/07/18 01:51:16;;;;;;;5.78;4.80;;;;;;;28.19;49.92;101553.25;5094648;28;20044;-75
2022/07/18 01:53:55;;;;;;;5.45;4.95;;;;;;;28.19;49.92;101549.69;5093257;28;20047;-75
2022/07/18 01:56:22;;;;;;;7.38;5.20;;;;;;;28.19;50.05;101561.41;5093858;28;20051;-75
2022/07/18 01:58:50;;;;;;;6.65;4.90;;;;;;;28.20;50.17;101565.00;5094206;28;20056;-74
2022/07/18 02:01:17;;;;;;;6.28;4.90;;;;;;;28.19;49.99;101555.97;5093215;28;20052;-75
2022/07/18 02:03:44;;;;;;;5.72;5.13;;;;;;;28.19;50.16;101561.41;5094368;28;20047;-75
2022/07/18 02:06:12;;;;;;;6.05;4.75;;;;;;;28.20;50.15;101559.56;5092406;28;20059;-75
2022/07/18 02:08:39;;;;;;;6.05;4.65;;;;;;;28.20;50.06;101565.00;5094250;28;20391;-75
2022/07/18 02:11:07;;;;;;;5.75;4.43;;;;;;;28.20;49.89;101565.00;5094417;28;20044;-75
2022/07/18 02:13:34;;;;;;;6.28;5.05;;;;;;;28.19;50.11;101566.00;5093683;28;20403;-75
2022/07/18 02:16:02;;;;;;;4.68;4.20;;;;;;;28.20;50.26;101565.00;5093105;28;20047;-75
2022/07/18 02:18:32;;;;;;;7.28;4.85;;;;;;;28.20;50.23;101565.84;5093776;28;20506;-75
2022/07/18 02:21:05;;;;;;;5.32;4.82;;;;;;;28.20;50.31;101562.28;5093595;28;20058;-75
2022/07/18 02:23:34;;;;;;;5.75;5.05;;;;;;;28.20;50.34;101567.72;5093799;28;20047;-75
2022/07/18 02:26:02;;;;;;;4.97;4.57;;;;;;;28.19;49.92;101557.84;5093901;28;20054;-75
2022/07/18 02:28:29;;;;;;;5.90;5.30;;;;;;;28.20;49.96;101559.56;5092303;28;20044;-75
2022/07/18 02:30:57;;;;;;;4.82;4.20;;;;;;;28.20;49.97;101565.00;5093623;28;20047;-75
2022/07/18 02:33:27;;;;;;;5.00;4.50;;;;;;;28.20;50.43;101562.28;5092246;28;20044;-75
2022/07/18 02:35:55;;;;;;;5.00;4.50;;;;;;;28.19;49.84;101569.59;5093778;28;20051;-75
2022/07/18 02:38:22;;;;;;;5.82;5.28;;;;;;;28.19;50.30;101566.00;5093526;28;20482;-75
2022/07/18 02:40:52;;;;;;;5.30;4.80;;;;;;;28.20;50.37;101573.19;5093506;28;20096;-75
2022/07/18 02:43:20;;;;;;;5.78;4.75;;;;;;;28.19;49.94;101574.19;5093277;28;20043;-75
2022/07/18 02:45:47;;;;;;;8.23;5.30;;;;;;;28.20;50.06;101570.47;5093564;28;20044;-76
2022/07/18 02:48:15;;;;;;;7.75;5.13;;;;;;;28.18;49.92;101573.34;5093234;28;20048;-76
2022/07/18 02:50:42;;;;;;;7.65;4.65;;;;;;;28.16;50.06;101572.69;5093615;28;20048;-76
2022/07/18 02:53:09;;;;;;;4.82;4.32;;;;;;;28.15;50.04;101575.53;5093170;28;20048;-76
2022/07/18 02:55:37;;;;;;;6.68;4.97;;;;;;;28.14;49.82;101574.69;5092939;28;20044;-76
2022/07/18 02:58:04;;;;;;;6.85;4.75;;;;;;;28.12;50.14;101582.22;5092026;28;20055;-76
2022/07/18 03:00:32;;;;;;;6.32;5.15;;;;;;;28.10;50.42;101576.06;5093707;28;20044;-76
2022/07/18 03:02:59;;;;;;;5.18;4.20;;;;;;;28.08;50.35;101578.97;5093612;28;20036;-75
2022/07/18 03:05:26;;;;;;;8.20;5.13;;;;;;;28.08;50.04;101578.13;5093591;28;20040;-75
2022/07/18 03:07:53;;;;;;;5.60;4.78;;;;;;;28.08;50.22;101578.13;5093698;28;20048;-76
2022/07/18 03:10:21;;;;;;;10.70;5.63;;;;;;;28.06;50.23;101583.72;5092810;28;20388;-77
2022/07/18 03:12:48;;;;;;;7.47;4.53;;;;;;;28.06;50.42;101580.16;5093240;28;20036;-76
2022/07/18 03:15:16;;;;;;;5.75;4.78;;;;;;;28.06;50.42;101583.72;5092798;28;20399;-76
2022/07/18 03:17:43;;;;;;;5.80;5.07;;;;;;;28.04;50.72;101579.50;5091560;28;20047;-76
2022/07/18 03:20:11;;;;;;;7.85;4.90;;;;;;;28.04;50.86;101580.34;5091606;28;20408;-76
2022/07/18 03:22:39;;;;;;;5.63;4.97;;;;;;;28.05;50.50;101587.47;5091874;28;20048;-76
2022/07/18 03:25:07;;;;;;;6.00;5.35;;;;;;;28.06;50.92;101588.31;5092639;28;20043;-76
2022/07/18 03:27:41;;;;;;;6.03;5.30;;;;;;;28.05;51.22;101592.91;5093906;28;20048;-76
2022/07/18 03:30:09;;;;;;;7.90;4.93;;;;;;;28.04;50.78;101591.22;5092931;28;20044;-76
2022/07/18 03:32:36;;;;;;;6.07;5.47;;;;;;;28.06;50.75;101593.75;5092688;28;20055;-76
2022/07/18 03:35:04;;;;;;;5.75;5.18;;;;;;;28.05;50.83;101594.81;5074947;28;20448;-76
2022/07/18 03:37:32;;;;;;;5.55;4.95;;;;;;;28.03;50.94;101594.94;5092546;28;20044;-76
2022/07/18 03:39:59;;;;;;;5.78;4.55;;;;;;;28.03;50.78;101592.22;5092447;28;20060;-76
2022/07/18 03:42:26;;;;;;;6.47;5.30;;;;;;;28.05;50.85;101597.53;5092741;28;20395;-76
2022/07/18 03:44:54;;;;;;;5.65;4.65;;;;;;;28.04;51.11;101604.00;5093010;28;20077;-76
2022/07/18 03:47:21;;;;;;;5.25;4.75;;;;;;;28.02;51.07;101606.88;5092382;28;20044;-76
2022/07/18 03:49:48;;;;;;;5.78;4.90;;;;;;;28.02;50.76;101598.69;5093363;28;20055;-76
2022/07/18 03:52:16;;;;;;;6.07;4.78;;;;;;;28.02;50.95;101603.28;5092822;28;20056;-76
2022/07/18 03:54:43;;;;;;;4.60;4.20;;;;;;;28.02;51.04;101601.41;5093019;28;20067;-76
2022/07/18 03:57:10;;;;;;;7.07;5.25;;;;;;;28.03;51.03;101607.72;5093181;28;20048;-76
2022/07/18 03:59:38;;;;;;;6.30;4.93;;;;;;;28.02;50.94;101606.88;5092523;28;20040;-76
2022/07/18 04:02:05;;;;;;;6.20;5.10;;;;;;;28.02;50.90;101611.47;5092500;28;20055;-76
2022/07/18 04:04:33;;;;;;;5.57;4.68;;;;;;;28.02;51.00;101608.75;5092904;28;20040;-76
2022/07/18 04:07:00;;;;;;;5.88;5.28;;;;;;;28.01;51.35;101607.91;5091280;28;20408;-77
2022/07/18 04:09:28;;;;;;;6.47;4.82;;;;;;;28.02;51.06;101611.47;5092199;28;20047;-76
2022/07/18 04:11:55;;;;;;;5.55;5.03;;;;;;;28.01;51.05;101618.78;5092705;28;20051;-76
2022/07/18 04:14:22;;;;;;;5.18;4.60;;;;;;;28.02;51.27;101622.34;5092421;28;20063;-76
2022/07/18 04:16:50;;;;;;;6.88;4.70;;;;;;;28.03;51.76;101621.31;5090938;28;20059;-76
2022/07/18 04:19:17;;;;;;;5.57;4.97;;;;;;;28.02;51.21;101627.78;5095411;28;20411;-75
2022/07/18 04:21:44;;;;;;;6.95;4.90;;;;;;;28.02;51.33;101631.38;5096119;28;20047;-76
2022/07/18 04:24:12;;;;;;;5.75;5.00;;;;;;;28.02;51.25;101636.81;5096161;28;20507;-76
2022/07/18 04:26:40;;;;;;;6.15;5.60;;;;;;;28.02;51.15;101642.25;5096187;28;20480;-76
2022/07/18 04:29:08;;;;;;;8.45;5.20;;;;;;;28.01;51.40;101645.16;5078679;28;20419;-76
2022/07/18 04:31:35;;;;;;;6.07;5.45;;;;;;;28.00;51.23;101649.75;5096015;28;20059;-76
2022/07/18 04:34:02;;;;;;;8.43;5.70;;;;;;;27.99;51.19;101647.19;5095785;28;20048;-75
2022/07/18 04:36:30;;;;;;;7.55;5.78;;;;;;;27.99;51.20;101644.47;5096189;28;20048;-76
2022/07/18 04:38:57;;;;;;;7.30;5.70;;;;;;;27.98;51.63;101642.75;5093981;28;20406;-76
2022/07/18 04:41:25;;;;;;;7.07;6.38;;;;;;;27.98;51.98;101635.44;5095814;28;20510;-76
2022/07/18 04:43:52;;;;;;;7.55;6.40;;;;;;;27.98;51.70;101640.88;5094705;28;20044;-76
2022/07/18 04:46:19;;;;;;;7.32;6.10;;;;;;;27.98;51.64;101640.03;5095686;28;20488;-76
2022/07/18 04:48:47;;;;;;;8.50;5.88;;;;;;;27.96;51.68;101632.06;5094251;28;20067;-76
2022/07/18 04:51:14;;;;;;;6.38;5.78;;;;;;;27.98;51.85;101640.88;5097279;28;20055;-76
2022/07/18 04:53:42;;;;;;;6.57;5.15;;;;;;;27.98;51.65;101634.59;5096328;28;20044;-76
2022/07/18 04:56:09;;;;;;;7.03;6.22;;;;;;;27.98;51.84;101643.63;5099637;28;20040;-76
2022/07/18 04:58:36;;;;;;;7.53;5.25;;;;;;;27.99;51.72;101639.84;5100894;28;20040;-76
2022/07/18 05:01:04;;;;;;;7.55;5.88;;;;;;;27.99;51.70;101637.13;5099517;28;20051;-76
2022/07/18 05:03:31;;;;;;;6.70;6.00;;;;;;;28.00;51.75;101638.88;5096577;28;20048;-76
2022/07/18 05:05:58;;;;;;;10.27;6.13;;;;;;;28.00;51.74;101636.13;5095751;28;20055;-75
2022/07/18 05:08:26;;;;;;;7.47;5.88;;;;;;;28.01;51.83;101634.28;5094387;28;20059;-75
2022/07/18 05:10:53;;;;;;;8.88;6.03;;;;;;;28.01;52.17;101631.53;5095469;28;20040;-76
2022/07/18 05:13:21;;;;;;;6.60;5.80;;;;;;;28.00;52.14;101630.69;5095152;28;20456;-76
2022/07/18 05:15:48;;;;;;;5.93;5.35;;;;;;;28.02;52.16;101625.06;5095484;28;20051;-75
2022/07/18 05:18:16;;;;;;;7.78;6.20;;;;;;;28.02;52.03;101627.78;5094424;28;20051;-75
2022/07/18 05:20:43;;;;;;;5.63;5.10;;;;;;;28.02;51.92;101622.34;5094331;28;20036;-76
2022/07/18 05:23:14;;;;;;;9.77;5.68;;;;;;;28.02;51.91;101622.34;5095172;28;20059;-76
2022/07/18 05:25:42;;;;;;;8.15;6.03;;;;;;;28.02;51.99;101628.63;5076305;28;20052;-76
2022/07/18 05:28:09;;;;;;;9.15;6.47;;;;;;;28.02;51.70;101634.09;5094736;28;20040;-76
2022/07/18 05:30:37;;;;;;;9.00;5.97;;;;;;;28.02;51.84;101625.91;5095348;28;20044;-76
2022/07/18 05:33:05;;;;;;;6.53;5.82;;;;;;;28.02;51.78;101623.19;5094910;28;20506;-76
2022/07/18 05:35:32;;;;;;;6.68;5.93;;;;;;;28.02;52.23;101623.19;5094748;28;20499;-75
2022/07/18 05:38:00;;;;;;;10.18;6.35;;;;;;;28.03;51.96;101626.75;5095772;28;20044;-76
2022/07/18 05:40:27;;;;;;;5.95;5.30;;;;;;;28.03;52.11;101624.03;5094870;28;20419;-75
2022/07/18 05:42:55;;;;;;;6.72;5.03;;;;;;;28.04;51.92;101623.91;5094754;28;20043;-75
2022/07/18 05:45:23;;;;;;;6.47;5.88;;;;;;;28.04;52.35;101623.03;5094518;28;20040;-75
2022/07/18 05:47:52;;;;;;;8.68;5.50;;;;;;;28.03;52.02;101615.88;5094474;28;20044;-76
2022/07/18 05:50:20;;;;;;;8.45;5.80;;;;;;;28.02;51.99;101622.34;5094721;28;20040;-75
2022/07/18 05:52:48;;;;;;;8.98;5.70;;;;;;;28.02;52.72;101619.63;5094179;28;20044;-76
2022/07/18 05:55:15;;;;;;;8.20;6.03;;;;;;;28.02;52.58;101627.78;5094380;28;20503;-75
2022/07/18 05:57:43;;;;;;;6.68;5.97;;;;;;;28.02;52.43;101625.06;5094903;28;20044;-75
2022/07/18 06:00:11;;;;;;;6.78;6.00;;;;;;;28.01;52.69;101629.66;5094316;28;20048;-75
2022/07/18 06:02:39;;;;;;;6.88;6.15;;;;;;;28.03;52.75;101634.94;5094188;28;20391;-75
2022/07/18 06:05:07;;;;;;;6.30;5.60;;;;;;;28.02;52.38;101635.97;5092561;28;20048;-76
2022/07/18 06:07:54;;;;;;;6.93;5.40;;;;;;;28.02;52.38;101635.97;5095056;28;20044;-75
2022/07/18 06:10:24;;;;;;;8.25;6.15;;;;;;;28.00;52.26;101636.13;5092643;28;20054;-75
2022/07/18 06:12:51;;;;;;;7.05;6.35;;;;;;;27.98;52.58;101634.59;5093912;28;20048;-73
2022/07/18 06:15:19;;;;;;;6.95;5.63;;;;;;;27.96;52.02;101640.22;5092112;28;20399;-75
2022/07/18 06:17:46;;;;;;;6.30;5.65;;;;;;;27.95;52.33;101641.22;5092485;28;20055;-75
2022/07/18 06:20:14;;;;;;;8.57;6.70;;;;;;;27.96;52.60;101636.66;5092836;28;20518;-75
2022/07/18 06:22:41;;;;;;;8.98;5.90;;;;;;;27.96;52.73;101637.50;5072526;28;20051;-75
2022/07/18 06:25:09;;;;;;;8.32;5.63;;;;;;;27.98;52.74;101640.88;5073233;28;20041;-75
2022/07/18 06:27:37;;;;;;;8.65;6.38;;;;;;;27.99;52.45;101636.28;5073803;28;20403;-75
2022/07/18 06:30:07;;;;;;;7.25;5.88;;;;;;;27.99;52.97;101637.13;5073944;28;20052;-75
2022/07/18 06:32:34;;;;;;;7.10;6.40;;;;;;;28.01;52.90;101637.00;5073345;28;20048;-75
2022/07/18 06:35:02;;;;;;;5.97;5.47;;;;;;;28.01;52.96;101637.84;5073057;28;20041;-75
2022/07/18 06:37:30;;;;;;;7.03;5.82;;;;;;;28.01;52.87;101640.56;5073774;28;20052;-75
2022/07/18 06:39:57;;;;;;;9.23;6.65;;;;;;;28.03;52.66;101638.50;5073152;28;20512;-76
2022/07/18 06:42:29;;;;;;;8.93;7.05;;;;;;;28.04;53.06;101640.22;5073375;28;20503;-76
2022/07/18 06:44:57;;;;;;;9.32;6.15;;;;;;;28.04;52.66;101637.50;5071674;28;20052;-76
2022/07/18 06:47:24;;;;;;;6.97;6.25;;;;;;;28.06;53.36;101643.63;5080716;28;20044;-75
2022/07/18 06:49:51;;;;;;;8.75;7.15;;;;;;;28.06;54.03;101646.34;5093606;28;20110;-75
2022/07/18 06:52:19;;;;;;;11.60;6.88;;;;;;;28.03;54.44;101649.38;5093674;28;20066;-75
2022/07/18 06:54:46;;;;;;;10.60;6.15;;;;;;;28.02;54.09;101646.84;5093855;28;20054;-76
2022/07/18 06:57:13;;;;;;;7.78;6.68;;;;;;;28.01;54.34;101639.72;5105390;28;20046;-77
2022/07/18 06:59:41;;;;;;;8.32;6.30;;;;;;;27.99;54.91;101639.84;5111747;28;20054;-74
2022/07/18 07:02:16;;;;;;;7.90;6.32;;;;;;;27.99;54.48;101642.59;5092236;28;20051;-74
2022/07/18 07:04:43;;;;;;;8.73;7.32;;;;;;;27.96;54.91;101647.53;5093862;28;20468;-74
2022/07/18 07:07:10;;;;;;;13.48;7.63;;;;;;;27.94;54.64;101644.13;5093434;28;20051;-74
2022/07/18 07:09:38;;;;;;;7.35;6.60;;;;;;;27.92;54.79;101644.31;5092338;28;20048;-74
2022/07/18 07:12:05;;;;;;;9.43;5.75;;;;;;;27.93;54.89;101642.44;5075298;28;20404;-77
2022/07/18 07:14:33;;;;;;;7.63;6.97;;;;;;;27.93;54.99;101646.00;5093270;28;20048;-75
2022/07/18 07:17:00;;;;;;;9.65;6.50;;;;;;;27.93;54.90;101646.00;5093350;28;20051;-75
2022/07/18 07:19:28;;;;;;;8.18;6.18;;;;;;;27.95;54.84;101643.94;5093488;28;20048;-75
2022/07/18 07:21:55;;;;;;;8.48;7.10;;;;;;;27.95;55.15;101641.22;5093396;28;20055;-76
2022/07/18 07:24:22;;;;;;;9.23;7.13;;;;;;;27.95;54.89;101649.38;5093572;28;20039;-75
2022/07/18 07:26:50;;;;;;;7.60;6.38;;;;;;;27.93;55.13;101653.31;5093563;28;20090;-75
2022/07/18 07:29:23;;;;;;;7.80;7.00;;;;;;;27.94;54.54;101644.97;5093452;28;20048;-75
2022/07/18 07:31:51;;;;;;;8.07;5.90;;;;;;;27.94;54.78;101647.69;5092894;28;20486;-75
2022/07/18 07:34:18;;;;;;;10.68;6.97;;;;;;;27.94;54.54;101639.53;5092729;28;20052;-75
2022/07/18 07:36:46;;;;;;;8.98;6.40;;;;;;;27.96;55.12;101636.66;5091578;28;20399;-76
2022/07/18 07:39:14;;;;;;;9.05;6.88;;;;;;;27.98;54.66;101640.88;5091772;28;20153;-75
2022/07/18 07:41:41;;;;;;;7.38;6.60;;;;;;;27.98;54.09;101643.63;5093089;28;20459;-75
2022/07/18 07:44:09;;;;;;;9.98;6.68;;;;;;;27.99;54.19;101648.03;5092251;28;20511;-76
2022/07/18 07:46:36;;;;;;;9.15;6.78;;;;;;;28.02;54.25;101644.13;5092939;28;20040;-75
2022/07/18 07:49:03;;;;;;;9.27;6.57;;;;;;;28.04;53.69;101642.94;5093454;28;20052;-76
2022/07/18 07:51:31;;;;;;;6.55;5.90;;;;;;;28.05;53.98;101633.75;5093723;28;20073;-75
2022/07/18 07:54:05;;;;;;;6.97;5.50;;;;;;;28.09;53.60;101650.59;5096770;28;20048;-78
2022/07/18 07:56:32;;;;;;;9.10;6.30;;;;;;;28.08;53.33;101649.75;5097609;28;20044;-75
2022/07/18 07:59:01;;;;;;;7.65;5.43;;;;;;;28.09;53.20;101647.88;5096775;28;20048;-75
2022/07/18 08:01:28;;;;;;;7.75;5.72;;;;;;;28.11;53.47;101651.25;5097212;28;20052;-75
2022/07/18 08:03:56;;;;;;;7.65;6.10;;;;;;;28.13;53.12;101648.38;5096865;28;20150;-74
2022/07/18 08:06:23;;;;;;;7.45;5.88;;;;;;;28.14;53.51;101650.94;5096724;28;20047;-77
2022/07/18 08:08:51;;;;;;;11.02;6.15;;;;;;;28.17;53.05;101650.59;5096015;28;20051;-78
2022/07/18 08:11:25;;;;;;;10.15;5.53;;;;;;;28.27;52.54;101650.41;5097507;28;20055;-78
2022/07/18 08:13:54;;;;;;;7.80;6.07;;;;;;;28.27;52.98;101651.25;5096855;28;20044;-77
2022/07/18 08:16:22;;;;;;;7.30;5.38;;;;;;;28.26;52.48;101648.72;5096869;28;20051;-76
2022/07/18 08:18:50;;;;;;;7.00;5.50;;;;;;;28.26;52.87;101651.44;5096661;28;20062;-77
2022/07/18 08:21:17;;;;;;;5.93;5.30;;;;;;;28.26;52.94;101655.00;5095386;28;20052;-74
2022/07/18 08:23:47;;;;;;;6.28;5.63;;;;;;;28.31;51.09;101652.59;5095006;28;20384;-75
2022/07/18 08:26:15;;;;;;;6.53;5.82;;;;;;;28.35;51.27;101648.53;5096204;28;20040;-74
2022/07/18 08:28:43;;;;;;;6.22;5.63;;;;;;;28.37;51.94;101650.28;5096737;28;20510;-76
2022/07/18 08:31:11;;;;;;;11.23;5.32;;;;;;;28.34;51.93;101649.56;5096580;28;20062;-76
2022/07/18 08:33:39;;;;;;;9.68;5.82;;;;;;;28.40;50.98;101644.47;5095213;28;20039;-77
2022/07/18 08:36:09;;;;;;;5.80;5.10;;;;;;;28.41;51.72;101640.75;5096110;28;20047;-75
2022/07/18 08:38:37;;;;;;;6.70;5.00;;;;;;;28.38;51.21;101633.75;5095100;28;20059;-75
2022/07/18 08:41:05;;;;;;;8.60;5.15;;;;;;;28.41;50.52;101641.59;5097274;28;20070;-76
2022/07/18 08:43:33;;;;;;;7.47;4.97;;;;;;;28.45;50.79;101631.19;5094991;28;20396;-75
2022/07/18 08:46:05;;;;;;;7.00;5.18;;;;;;;28.44;50.74;101634.94;5097669;28;20036;-75
2022/07/18 08:48:33;;;;;;;5.00;4.47;;;;;;;28.43;51.15;101631.34;5096300;28;20056;-75
2022/07/18 08:51:00;;;;;;;5.97;4.85;;;;;;;28.43;51.02;101636.81;5096301;28;20048;-75
2022/07/18 08:53:28;;;;;;;5.75;5.00;;;;;;;28.45;51.07;101636.66;5094572;28;20052;-74
2022/07/18 08:55:55;;;;;;;5.82;4.50;;;;;;;28.47;50.13;101638.16;5095897;28;20051;-75
2022/07/18 08:58:23;;;;;;;6.38;4.55;;;;;;;28.48;50.44;101633.56;5094779;28;20051;-76
2022/07/18 09:01:11;;;;;;;7.00;5.28;;;;;;;28.48;50.79;101626.25;5095764;28;20048;-77
2022/07/18 09:03:38;;;;;;;8.07;4.90;;;;;;;28.48;50.59;101629.00;5095100;28;20483;-76
2022/07/18 09:06:06;;;;;;;5.00;4.47;;;;;;;28.47;50.58;101629.13;5095545;28;20055;-76
2022/07/18 09:08:33;;;;;;;5.60;4.43;;;;;;;28.47;51.01;101626.41;5095953;28;20488;-85
2022/07/18 09:11:03;;;;;;;6.55;4.97;;;;;;;28.46;50.77;101636.47;5095565;28;20047;-74
2022/07/18 09:13:33;;;;;;;4.90;4.20;;;;;;;28.46;51.30;101632.91;5094430;28;20048;-75
2022/07/18 09:16:08;;;;;;;5.28;4.53;;;;;;;28.45;51.07;101629.31;5095622;28;20048;-76
2022/07/18 09:18:37;;;;;;;9.07;5.03;;;;;;;28.44;51.51;101633.06;5094401;28;20052;-76
2022/07/18 09:21:10;;;;;;;6.40;4.80;;;;;;;28.44;51.57;101635.81;5094526;28;20399;-75
2022/07/18 09:23:43;;;;;;;7.32;5.28;;;;;;;28.43;51.59;101636.81;5095837;28;20048;-76
2022/07/18 09:26:11;;;;;;;5.20;4.20;;;;;;;28.44;51.53;101635.81;5095783;28;20459;-75
2022/07/18 09:28:50;;;;;;;4.78;4.38;;;;;;;28.45;51.63;101632.03;5095377;28;20048;-76
2022/07/18 09:31:37;;;;;;;5.18;4.68;;;;;;;28.44;51.59;101630.34;5095475;28;20048;-75
2022/07/18 09:34:06;;;;;;;5.75;4.75;;;;;;;28.44;51.48;101635.81;5095416;28;20040;-75
2022/07/18 09:36:36;;;;;;;5.40;4.00;;;;;;;28.44;51.76;101635.81;5095074;28;20055;-76
2022/07/18 09:39:20;;;;;;;7.05;5.07;;;;;;;28.45;51.66;101632.03;5095302;28;20055;-77
2022/07/18 09:41:47;;;;;;;6.10;4.22;;;;;;;28.46;51.68;101631.03;5095581;28;20048;-78
2022/07/18 09:44:18;;;;;;;5.75;4.47;;;;;;;28.45;51.66;101629.31;5094003;28;20047;-75
2022/07/18 09:47:02;;;;;;;4.82;4.30;;;;;;;28.46;51.33;101632.91;5096064;28;20044;-76
2022/07/18 09:49:32;;;;;;;6.30;4.72;;;;;;;28.46;51.37;101639.19;5093972;28;20044;-75
2022/07/18 09:52:05;;;;;;;5.15;4.63;;;;;;;28.46;51.65;101631.03;5094505;28;20051;-76
2022/07/18 09:54:41;;;;;;;5.05;4.28;;;;;;;28.46;51.81;101627.44;5093596;28;20051;-77
2022/07/18 09:57:09;;;;;;;4.68;4.28;;;;;;;28.47;51.36;101621.81;5094497;28;20036;-75
2022/07/18 09:59:37;;;;;;;7.47;4.18;;;;;;;28.48;51.63;101619.94;5095295;28;20054;-77
2022/07/18 10:02:06;;;;;;;5.38;4.70;;;;;;;28.48;51.36;101619.94;5077064;28;20407;-78
2022/07/18 10:04:34;;;;;;;4.88;4.25;;;;;;;28.48;51.50;101630.84;5095078;28;20048;-77
2022/07/18 10:07:01;;;;;;;4.72;4.22;;;;;;;28.48;51.62;101631.72;5094655;28;20044;-76
2022/07/18 10:09:29;;;;;;;5.78;4.05;;;;;;;28.49;51.48;101624.38;5094403;28;20044;-80
2022/07/18 10:11:58;;;;;;;5.85;4.30;;;;;;;28.49;51.44;101619.78;5094833;28;20052;-79
2022/07/18 10:14:30;;;;;;;6.15;4.45;;;;;;;28.50;51.27;101613.31;5092949;28;20052;-77
2022/07/18 10:17:00;;;;;;;4.97;4.15;;;;;;;28.49;51.24;101611.59;5094604;28;20036;-80
2022/07/18 10:19:27;;;;;;;6.07;4.53;;;;;;;28.50;51.57;101615.19;5093447;28;20404;-76
2022/07/18 10:21:57;;;;;;;4.57;3.95;;;;;;;28.50;51.77;101612.47;5094255;28;20048;-79
2022/07/18 10:24:26;;;;;;;4.90;4.07;;;;;;;28.51;51.65;101614.16;5092643;28;20048;-79
2022/07/18 10:27:15;;;;;;;6.13;4.53;;;;;;;28.51;51.51;101609.53;5093972;28;20434;-78
2022/07/18 10:30:09;;;;;;;4.38;3.55;;;;;;;28.50;51.70;101607.84;5094276;28;20070;-77
2022/07/18 10:32:37;;;;;;;5.20;4.00;;;;;;;28.49;51.30;101595.25;5094198;28;20040;-84
2022/07/18 10:35:10;;;;;;;5.00;4.50;;;;;;;28.51;51.53;101608.69;5094090;28;20040;-82
2022/07/18 10:37:38;;;;;;;5.15;4.05;;;;;;;28.49;51.99;101603.44;5095252;28;20052;-76
2022/07/18 10:40:27;;;;;;;5.13;3.90;;;;;;;28.51;52.33;101597.81;5093620;28;20055;-78
2022/07/18 10:43:23;;;;;;;5.78;4.20;;;;;;;28.52;55.03;101604.94;5094547;28;20048;-78
2022/07/18 10:45:50;;;;;;;4.80;4.30;;;;;;;28.50;56.30;101596.97;5094608;28;20507;-76
2022/07/18 10:48:33;;;;;;;4.30;3.90;;;;;;;28.48;56.13;101590.84;5092520;28;20059;-77
2022/07/18 10:51:01;;;;;;;4.60;3.75;;;;;;;28.48;56.34;101590.84;5094058;28;20059;-77
2022/07/18 10:53:53;;;;;;;4.40;4.00;;;;;;;28.46;56.54;101587.44;5092937;28;20400;-76
2022/07/18 10:56:41;;;;;;;4.53;4.13;;;;;;;28.45;56.98;101585.75;5094646;28;20048;-77
2022/07/18 10:59:15;;;;;;;5.22;3.90;;;;;;;28.44;57.43;101584.06;5094554;28;20044;-79
2022/07/18 11:01:53;;;;;;;4.25;3.88;;;;;;;28.44;57.57;101585.91;5094789;28;20052;-77
2022/07/18 11:04:32;;;;;;;4.45;3.90;;;;;;;28.43;57.69;101576.03;5095826;28;20047;-75
2022/07/18 11:07:07;;;;;;;4.88;4.00;;;;;;;28.43;57.19;101573.31;5095363;28;20426;-76
2022/07/18 11:09:39;;;;;;;7.22;4.10;;;;;;;28.43;57.22;101574.16;5094385;28;20048;-76
2022/07/18 11:12:31;;;;;;;4.63;4.13;;;;;;;28.42;57.21;101577.91;5093699;28;20052;-78
2022/07/18 11:15:02;;;;;;;4.43;4.03;;;;;;;28.42;57.66;101572.47;5093072;28;20404;-81
2022/07/18 11:17:51;;;;;;;5.90;4.15;;;;;;;28.42;57.60;101572.47;5093529;28;20044;-81
2022/07/18 11:20:33;;;;;;;5.68;4.22;;;;;;;28.43;57.52;101567.88;5093580;28;20048;-76
2022/07/18 11:23:14;;;;;;;4.47;4.05;;;;;;;28.42;56.34;101572.47;5093228;28;20043;-76
2022/07/18 11:25:41;;;;;;;5.13;4.63;;;;;;;28.43;57.59;101570.59;5093222;28;20040;-77
2022/07/18 11:28:26;;;;;;;5.55;4.57;;;;;;;28.41;57.78;101568.06;5092348;28;20048;-76
2022/07/18 11:31:20;;;;;;;5.35;4.00;;;;;;;28.43;57.63;101573.31;5093523;28;20051;-79
2022/07/18 11:33:49;;;;;;;6.13;4.43;;;;;;;28.41;57.87;101573.50;5091717;28;20083;-79
2022/07/18 11:36:19;;;;;;;4.55;4.10;;;;;;;28.42;58.00;101563.44;5093123;28;20368;-81
2022/07/18 11:38:54;;;;;;;7.30;4.50;;;;;;;28.43;58.70;101563.25;5091646;28;20051;-77